Time;durP1;ratioP1;P1;durP2;ratioP2;P2;SDS_P1;SDS_P2;PMS_P1;PMS_P2;Temp;Humidity;BMP_temperature;BMP_pressure;BME280_temperature;BME280_humidity;BME280_pressure;Samples;Min_cycle;Max_cycle;Signal;HPM_P1;HPM_P2
2022/07/11 00:00:12;;;;;;;6.75;4.07;;;18.10;99.90;;;;;;4964111;28;20204;-82
2022/07/11 00:02:40;;;;;;;7.40;4.07;;;18.10;99.90;;;;;;4963371;28;20232;-82
2022/07/11 00:05:10;;;;;;;5.00;3.65;;;18.00;99.90;;;;;;4978859;28;20197;-83
2022/07/11 00:07:38;;;;;;;7.18;3.42;;;18.10;99.90;;;;;;4964528;28;20212;-83
2022/07/11 00:10:07;;;;;;;5.07;4.03;;;18.10;99.90;;;;;;4980074;28;20200;-83
2022/07/11 00:12:34;;;;;;;4.28;3.58;;;18.10;99.90;;;;;;4962535;28;20232;-83
2022/07/11 00:15:02;;;;;;;4.35;3.38;;;18.00;99.90;;;;;;4963639;28;20205;-83
2022/07/11 00:17:30;;;;;;;5.72;3.25;;;18.00;99.90;;;;;;4963759;28;20204;-83
2022/07/11 00:19:58;;;;;;;5.22;3.20;;;18.00;99.90;;;;;;4980400;28;20208;-82
2022/07/11 00:22:27;;;;;;;5.38;3.70;;;18.00;99.90;;;;;;4979211;28;20221;-82
2022/07/11 00:24:54;;;;;;;5.72;3.47;;;18.00;99.90;;;;;;4980211;28;20193;-83
2022/07/11 00:27:22;;;;;;;4.90;3.55;;;18.00;99.90;;;;;;4979528;28;20197;-83
2022/07/11 00:29:49;;;;;;;4.25;3.30;;;18.00;99.90;;;;;;4963661;28;20197;-83
2022/07/11 00:32:17;;;;;;;7.55;3.42;;;18.00;99.90;;;;;;4980102;28;20221;-82
2022/07/11 00:34:44;;;;;;;4.85;3.33;;;18.00;99.90;;;;;;4978666;28;20200;-83
2022/07/11 00:37:12;;;;;;;6.00;3.53;;;18.00;99.90;;;;;;4964961;28;20659;-82
2022/07/11 00:39:41;;;;;;;5.07;3.45;;;17.90;99.90;;;;;;4963732;28;20212;-82
2022/07/11 00:42:08;;;;;;;5.03;3.38;;;18.00;99.90;;;;;;4976484;28;20684;-82
2022/07/11 00:44:36;;;;;;;5.10;3.40;;;18.00;99.90;;;;;;4964000;28;20224;-82
2022/07/11 00:47:04;;;;;;;6.20;3.40;;;18.00;99.90;;;;;;4964530;28;20209;-83
2022/07/11 00:49:32;;;;;;;6.38;3.22;;;17.90;99.90;;;;;;4964718;28;20193;-82
2022/07/11 00:51:59;;;;;;;4.75;3.58;;;17.80;99.90;;;;;;4979935;28;20232;-83
2022/07/11 00:54:29;;;;;;;4.05;3.17;;;17.80;99.90;;;;;;4983700;28;20201;-83
2022/07/11 00:56:58;;;;;;;5.53;3.55;;;17.70;99.90;;;;;;4967232;28;20220;-82
2022/07/11 00:59:26;;;;;;;4.13;3.08;;;17.70;99.90;;;;;;4969235;28;20216;-83
2022/07/11 01:01:54;;;;;;;5.57;3.90;;;17.70;99.90;;;;;;4963009;28;20244;-82
2022/07/11 01:04:22;;;;;;;6.18;3.78;;;17.70;99.90;;;;;;4961307;28;20216;-83
2022/07/11 01:06:50;;;;;;;7.03;3.15;;;17.70;99.90;;;;;;4961467;28;20197;-83
2022/07/11 01:09:17;;;;;;;4.00;3.30;;;17.70;99.90;;;;;;4961123;28;20201;-83
2022/07/11 01:11:45;;;;;;;5.60;3.13;;;17.70;99.90;;;;;;4976743;28;20252;-83
2022/07/11 01:14:14;;;;;;;5.32;3.20;;;17.70;99.90;;;;;;4977781;28;20205;-83
2022/07/11 01:16:42;;;;;;;4.85;3.78;;;17.70;99.90;;;;;;4977999;28;20204;-83
2022/07/11 01:19:09;;;;;;;5.50;3.17;;;17.70;99.90;;;;;;4961665;28;20212;-83
2022/07/11 01:21:39;;;;;;;5.22;3.30;;;17.70;99.90;;;;;;4977967;28;20216;-82
2022/07/11 01:24:09;;;;;;;6.55;3.70;;;17.60;99.90;;;;;;4975569;28;20574;-83
2022/07/11 01:26:37;;;;;;;5.70;3.13;;;17.50;99.90;;;;;;4959870;28;20212;-83
2022/07/11 01:29:09;;;;;;;6.18;3.83;;;17.50;99.90;;;;;;4961705;28;20197;-83
2022/07/11 01:31:39;;;;;;;6.47;3.20;;;17.50;99.90;;;;;;4974829;28;20223;-83
2022/07/11 01:34:07;;;;;;;4.72;3.58;;;17.50;99.90;;;;;;4960895;28;20201;-82
2022/07/11 01:36:34;;;;;;;5.80;3.60;;;17.50;99.90;;;;;;4976716;28;20212;-82
2022/07/11 01:39:02;;;;;;;6.10;3.38;;;17.50;99.90;;;;;;4961658;28;20200;-83
2022/07/11 01:41:31;;;;;;;4.47;3.50;;;17.50;99.90;;;;;;4974823;28;20219;-83
2022/07/11 01:43:59;;;;;;;5.18;3.50;;;17.50;99.90;;;;;;4976907;28;20240;-83
2022/07/11 01:46:26;;;;;;;6.85;3.58;;;17.50;99.90;;;;;;4977167;28;20203;-83
2022/07/11 01:48:54;;;;;;;6.35;3.72;;;17.50;99.90;;;;;;4961666;28;20208;-82
2022/07/11 01:51:24;;;;;;;6.38;3.53;;;17.50;99.90;;;;;;4976515;28;20643;-83
2022/07/11 01:53:52;;;;;;;4.75;3.63;;;17.50;99.90;;;;;;4977448;28;20204;-82
2022/07/11 01:56:20;;;;;;;6.93;3.30;;;17.40;99.90;;;;;;4976854;28;20204;-83
2022/07/11 01:58:49;;;;;;;5.25;3.70;;;17.40;99.90;;;;;;4960934;28;20207;-83
2022/07/11 02:01:16;;;;;;;11.02;3.58;;;17.40;99.90;;;;;;4976078;28;20290;-83
2022/07/11 02:03:44;;;;;;;4.32;3.35;;;17.40;99.90;;;;;;4960029;28;20217;-83
2022/07/11 02:06:11;;;;;;;5.90;3.35;;;17.30;99.90;;;;;;4975305;28;20204;-83
2022/07/11 02:08:39;;;;;;;4.70;3.63;;;17.30;99.90;;;;;;4976506;28;20201;-83
2022/07/11 02:11:07;;;;;;;6.65;3.85;;;17.30;99.90;;;;;;4976669;28;20216;-83
2022/07/11 02:13:34;;;;;;;7.15;3.33;;;17.40;99.90;;;;;;4960051;28;20225;-82
2022/07/11 02:16:04;;;;;;;6.75;3.70;;;17.40;99.90;;;;;;4976659;28;20203;-83
2022/07/11 02:18:34;;;;;;;8.88;3.78;;;17.30;99.90;;;;;;4960449;28;21668;-83
2022/07/11 02:21:02;;;;;;;5.38;3.50;;;17.30;99.90;;;;;;4955655;28;20216;-83
2022/07/11 02:23:29;;;;;;;7.43;3.78;;;17.40;99.90;;;;;;4978228;28;20209;-83
2022/07/11 02:25:57;;;;;;;6.90;3.83;;;17.40;99.90;;;;;;4977273;28;20212;-82
2022/07/11 02:28:24;;;;;;;7.40;3.95;;;17.40;99.90;;;;;;4976290;28;20204;-82
2022/07/11 02:30:52;;;;;;;5.47;3.42;;;17.30;99.90;;;;;;4975910;28;20208;-84
2022/07/11 02:33:21;;;;;;;5.72;3.72;;;17.30;99.90;;;;;;4959967;28;20228;-82
2022/07/11 02:35:48;;;;;;;7.85;4.00;;;17.30;99.90;;;;;;4962942;28;20194;-83
2022/07/11 02:38:16;;;;;;;7.25;3.55;;;17.30;99.90;;;;;;4980411;28;20197;-83
2022/07/11 02:40:44;;;;;;;7.20;3.70;;;17.30;99.90;;;;;;4980574;28;20204;-83
2022/07/11 02:43:12;;;;;;;7.07;3.83;;;17.30;99.90;;;;;;4979684;28;20224;-83
2022/07/11 02:45:40;;;;;;;4.25;3.47;;;17.30;99.90;;;;;;4963513;28;20217;-82
2022/07/11 02:48:07;;;;;;;5.72;3.30;;;17.40;99.90;;;;;;4964505;28;20655;-82
2022/07/11 02:50:36;;;;;;;7.35;4.00;;;17.40;99.90;;;;;;4979072;28;20204;-83
2022/07/11 02:53:04;;;;;;;6.75;3.88;;;17.40;99.90;;;;;;4979656;28;20240;-84
2022/07/11 02:55:31;;;;;;;6.00;3.58;;;17.30;99.90;;;;;;4963719;28;20201;-82
2022/07/11 02:57:59;;;;;;;6.57;4.55;;;17.30;99.90;;;;;;4978588;28;20201;-83
2022/07/11 03:00:27;;;;;;;7.85;4.07;;;17.40;99.90;;;;;;4978582;28;20201;-83
2022/07/11 03:02:55;;;;;;;6.63;4.20;;;17.40;99.90;;;;;;4963329;28;20228;-83
2022/07/11 03:05:22;;;;;;;5.47;4.00;;;17.30;99.90;;;;;;4978453;28;20221;-83
2022/07/11 03:07:51;;;;;;;7.15;3.97;;;17.30;99.90;;;;;;4979933;28;20200;-82
2022/07/11 03:10:19;;;;;;;9.65;4.45;;;17.20;99.90;;;;;;4977800;28;20193;-83
2022/07/11 03:12:46;;;;;;;5.95;4.10;;;17.20;99.90;;;;;;4962842;28;20305;-82
2022/07/11 03:15:14;;;;;;;8.75;4.03;;;17.20;99.90;;;;;;4979091;28;20204;-82
2022/07/11 03:17:41;;;;;;;5.13;4.18;;;17.20;99.90;;;;;;4962494;28;20234;-82
2022/07/11 03:20:10;;;;;;;5.68;3.85;;;17.10;99.90;;;;;;4978301;28;20201;-83
2022/07/11 03:22:38;;;;;;;7.18;4.15;;;17.10;99.90;;;;;;4978544;28;20225;-82
2022/07/11 03:25:08;;;;;;;5.35;3.95;;;17.10;99.90;;;;;;4971368;28;20222;-83
2022/07/11 03:27:35;;;;;;;6.18;4.32;;;17.10;99.90;;;;;;4963808;28;20213;-83
2022/07/11 03:30:04;;;;;;;7.60;3.78;;;17.10;99.90;;;;;;4962590;28;20201;-82
2022/07/11 03:32:31;;;;;;;6.00;3.88;;;17.10;99.90;;;;;;4961932;28;20217;-83
2022/07/11 03:37:55;;;;;;;5.95;3.92;;;17.20;99.90;;;;;;4919848;29;20207;-82
2022/07/11 03:40:24;;;;;;;6.82;4.18;;;17.20;99.90;;;;;;4948994;28;20201;-82
2022/07/11 03:42:51;;;;;;;8.60;3.83;;;17.10;99.90;;;;;;4962346;28;20620;-83
2022/07/11 03:45:19;;;;;;;10.00;4.00;;;17.10;99.90;;;;;;4978676;28;20217;-82
2022/07/11 03:47:47;;;;;;;7.00;3.50;;;17.10;99.90;;;;;;4978530;28;20216;-82
2022/07/11 03:50:16;;;;;;;5.63;4.00;;;17.10;99.90;;;;;;4962644;28;20575;-82
2022/07/11 03:52:43;;;;;;;5.78;3.88;;;17.00;99.90;;;;;;4972906;28;20699;-82
2022/07/11 03:55:11;;;;;;;8.38;4.00;;;17.10;99.90;;;;;;4978469;28;20194;-82
2022/07/11 03:57:40;;;;;;;7.03;3.83;;;17.20;99.90;;;;;;4978188;28;20197;-82
2022/07/11 04:00:09;;;;;;;6.72;3.70;;;17.20;99.90;;;;;;4979031;28;20548;-81
2022/07/11 04:02:37;;;;;;;6.28;3.67;;;17.20;99.90;;;;;;4978367;28;20228;-81
2022/07/11 04:05:05;;;;;;;4.60;3.10;;;17.20;99.90;;;;;;4977605;28;20228;-81
2022/07/11 04:07:32;;;;;;;7.20;3.60;;;17.20;99.90;;;;;;4962641;28;20208;-81
2022/07/11 04:10:00;;;;;;;4.00;3.15;;;17.10;99.90;;;;;;4978669;28;20205;-81
2022/07/11 04:12:35;;;;;;;6.63;3.22;;;17.10;99.90;;;;;;4960447;28;20220;-81
2022/07/11 04:15:06;;;;;;;6.28;2.80;;;17.00;99.90;;;;;;4980735;28;20173;-81
2022/07/11 04:17:34;;;;;;;3.63;2.75;;;17.00;99.90;;;;;;4963339;28;20197;-81
2022/07/11 04:20:02;;;;;;;5.03;3.38;;;17.00;99.90;;;;;;4978819;28;20201;-81
2022/07/11 04:22:30;;;;;;;3.22;2.88;;;17.00;99.90;;;;;;4978508;28;20225;-81
2022/07/11 04:24:57;;;;;;;4.55;3.78;;;17.10;99.90;;;;;;4978666;28;20232;-81
2022/07/11 04:27:25;;;;;;;3.90;3.35;;;17.10;99.90;;;;;;4962500;28;20659;-81
2022/07/11 04:29:52;;;;;;;5.80;3.35;;;17.10;99.90;;;;;;4979090;28;20213;-81
2022/07/11 04:32:21;;;;;;;4.72;2.67;;;17.10;99.90;;;;;;4978708;28;20221;-82
2022/07/11 04:34:49;;;;;;;4.10;3.17;;;17.20;99.90;;;;;;4976981;28;20200;-82
2022/07/11 04:37:16;;;;;;;5.82;3.17;;;17.20;99.90;;;;;;4971705;28;20217;-82
2022/07/11 04:39:45;;;;;;;6.03;3.45;;;17.20;99.90;;;;;;4955263;28;20197;-82
2022/07/11 04:42:12;;;;;;;4.30;2.80;;;17.10;99.90;;;;;;4973948;28;20232;-82
2022/07/11 04:44:41;;;;;;;5.82;2.80;;;17.20;99.90;;;;;;4960962;28;20201;-82
2022/07/11 04:47:08;;;;;;;4.82;2.65;;;17.10;99.90;;;;;;4978698;28;20204;-82
2022/07/11 04:49:37;;;;;;;6.53;3.10;;;17.20;99.90;;;;;;4962752;28;20200;-82
2022/07/11 04:52:06;;;;;;;3.95;2.75;;;17.20;99.90;;;;;;4978573;28;20240;-82
2022/07/11 04:54:34;;;;;;;3.55;2.97;;;17.20;99.90;;;;;;4962343;28;20208;-82
2022/07/11 04:57:01;;;;;;;3.25;2.13;;;17.20;99.90;;;;;;4979551;28;20201;-82
2022/07/11 04:59:29;;;;;;;4.32;2.53;;;17.30;99.90;;;;;;4964360;28;20204;-82
2022/07/11 05:01:56;;;;;;;2.22;2.00;;;17.20;99.90;;;;;;4978936;28;20228;-82
2022/07/11 05:04:24;;;;;;;3.03;2.08;;;17.10;99.90;;;;;;4978342;28;20205;-82
2022/07/11 05:06:53;;;;;;;2.20;1.83;;;17.10;99.90;;;;;;4978966;28;20217;-82
2022/07/11 05:09:20;;;;;;;3.20;1.67;;;17.20;99.90;;;;;;4962935;28;20204;-82
2022/07/11 05:11:47;;;;;;;3.30;1.80;;;17.30;99.90;;;;;;4957856;28;20221;-82
2022/07/11 05:14:15;;;;;;;3.40;1.85;;;17.20;99.90;;;;;;4975717;28;20203;-82
2022/07/11 05:16:43;;;;;;;2.55;1.63;;;17.30;99.90;;;;;;4979080;28;20204;-82
2022/07/11 05:19:10;;;;;;;2.88;1.52;;;17.20;99.90;;;;;;4979461;28;20201;-83
2022/07/11 05:21:38;;;;;;;4.10;1.92;;;17.30;99.90;;;;;;4977687;28;20227;-82
2022/07/11 05:24:07;;;;;;;2.55;1.63;;;17.20;99.90;;;;;;4979093;28;20208;-82
2022/07/11 05:26:36;;;;;;;3.55;1.75;;;17.30;99.90;;;;;;4962637;28;20220;-82
2022/07/11 05:29:03;;;;;;;3.15;1.60;;;17.30;99.90;;;;;;4976730;28;20208;-82
2022/07/11 05:31:33;;;;;;;3.97;2.10;;;17.30;99.90;;;;;;4976745;28;20717;-82
2022/07/11 05:34:00;;;;;;;1.65;1.25;;;17.30;99.90;;;;;;4977015;28;20204;-82
2022/07/11 05:36:28;;;;;;;1.92;1.40;;;17.40;99.90;;;;;;4950711;29;20213;-82
2022/07/11 05:38:55;;;;;;;2.08;1.45;;;17.40;99.90;;;;;;4959211;29;20198;-82
2022/07/11 05:41:24;;;;;;;2.58;1.40;;;17.40;99.90;;;;;;4958055;29;20198;-82
2022/07/11 05:43:52;;;;;;;2.00;1.73;;;17.30;99.90;;;;;;4942256;29;20209;-82
2022/07/11 05:46:19;;;;;;;1.98;1.38;;;17.30;99.90;;;;;;4941179;29;20225;-82
2022/07/11 05:48:46;;;;;;;3.53;1.60;;;17.40;99.90;;;;;;4941924;29;20232;-82
2022/07/11 05:51:16;;;;;;;1.25;0.90;;;17.30;99.90;;;;;;4975665;28;20220;-82
2022/07/11 05:53:43;;;;;;;1.92;1.77;;;17.30;99.90;;;;;;4976222;28;20201;-82
2022/07/11 05:56:11;;;;;;;1.92;1.65;;;17.30;99.90;;;;;;4988325;23;20228;-81
2022/07/11 05:58:40;;;;;;;3.20;1.70;;;17.30;99.90;;;;;;4997100;28;20205;-81
2022/07/11 06:01:08;;;;;;;2.05;1.33;;;17.40;99.90;;;;;;4989903;28;20216;-83
2022/07/11 06:03:36;;;;;;;3.58;1.50;;;17.40;99.90;;;;;;4981952;28;21163;-83
2022/07/11 06:06:04;;;;;;;2.22;1.50;;;17.40;99.90;;;;;;4978656;28;20223;-84
2022/07/11 06:08:42;;;;;;;2.40;1.27;;;17.50;99.90;;;;;;4970788;28;20194;-83
2022/07/11 06:11:11;;;;;;;1.48;1.20;;;17.50;99.90;;;;;;4984695;28;20674;-83
2022/07/11 06:13:41;;;;;;;1.70;1.52;;;17.50;99.90;;;;;;4990243;28;20229;-84
2022/07/11 06:16:10;;;;;;;2.38;1.70;;;17.60;99.90;;;;;;4982261;28;20233;-84
2022/07/11 06:18:39;;;;;;;2.30;1.30;;;17.70;99.90;;;;;;4968487;28;20201;-83
2022/07/11 06:21:06;;;;;;;3.50;1.30;;;17.60;99.90;;;;;;4985823;28;20201;-84
2022/07/11 06:23:35;;;;;;;0.80;0.80;;;17.60;99.90;;;;;;4977208;28;20208;-84
2022/07/11 06:26:03;;;;;;;1.00;0.68;;;17.50;99.90;;;;;;4967151;28;20261;-83
2022/07/11 06:28:31;;;;;;;1.10;0.63;;;17.50;99.90;;;;;;4974600;28;20225;-83
2022/07/11 06:31:00;;;;;;;0.47;0.47;;;17.60;99.90;;;;;;4988110;28;20575;-84
2022/07/11 06:33:27;;;;;;;0.90;0.70;;;17.70;99.90;;;;;;4970211;28;20207;-84
2022/07/11 06:35:55;;;;;;;1.52;0.90;;;17.70;99.90;;;;;;4971331;28;20219;-84
2022/07/11 06:38:22;;;;;;;0.85;0.80;;;17.80;99.90;;;;;;4989370;28;20189;-84
2022/07/11 06:40:50;;;;;;;0.85;0.70;;;17.70;99.90;;;;;;4970911;28;20197;-83
2022/07/11 06:43:17;;;;;;;1.83;1.15;;;17.70;99.90;;;;;;4987805;28;20215;-84
2022/07/11 06:45:46;;;;;;;1.20;1.10;;;17.70;99.90;;;;;;4993747;28;20232;-83
2022/07/11 06:48:15;;;;;;;2.53;1.00;;;17.60;99.90;;;;;;4971658;28;20207;-83
2022/07/11 06:50:43;;;;;;;1.08;0.70;;;17.60;99.90;;;;;;4972422;28;20204;-83
2022/07/11 06:53:11;;;;;;;1.40;0.80;;;17.50;99.90;;;;;;4971727;28;20197;-83
2022/07/11 06:55:38;;;;;;;2.70;1.80;;;17.60;99.90;;;;;;4971886;28;20228;-83
2022/07/11 06:58:06;;;;;;;0.75;0.75;;;17.60;99.90;;;;;;4988941;28;20201;-83
2022/07/11 07:00:33;;;;;;;2.67;1.05;;;17.70;99.90;;;;;;4979630;28;20197;-83
2022/07/11 07:03:01;;;;;;;1.48;0.80;;;17.70;99.90;;;;;;4964644;28;20215;-83
2022/07/11 07:05:30;;;;;;;1.30;1.10;;;17.90;99.90;;;;;;4991116;28;20223;-83
2022/07/11 07:07:57;;;;;;;2.58;1.17;;;17.90;99.90;;;;;;4977476;28;20227;-83
2022/07/11 07:10:25;;;;;;;2.15;1.27;;;17.90;99.90;;;;;;4976782;28;20188;-83
2022/07/11 07:12:53;;;;;;;1.25;1.00;;;17.90;99.90;;;;;;4978917;28;20201;-83
2022/07/11 07:15:20;;;;;;;2.33;0.63;;;17.90;99.90;;;;;;4979954;28;20200;-83
2022/07/11 07:17:48;;;;;;;1.10;1.00;;;18.00;99.90;;;;;;4973766;28;20211;-83
2022/07/11 07:20:15;;;;;;;1.65;0.93;;;18.00;99.90;;;;;;4972964;28;20203;-83
2022/07/11 07:22:44;;;;;;;1.70;1.35;;;17.90;99.90;;;;;;4974642;28;20208;-83
2022/07/11 07:25:12;;;;;;;3.63;1.13;;;17.90;99.90;;;;;;4991975;28;20225;-83
2022/07/11 07:27:40;;;;;;;1.40;1.05;;;17.90;99.90;;;;;;4991610;28;20235;-83
2022/07/11 07:30:08;;;;;;;1.55;1.23;;;18.00;99.90;;;;;;4975718;28;20204;-83
2022/07/11 07:32:36;;;;;;;2.38;2.08;;;18.00;99.90;;;;;;4974099;28;20212;-83
2022/07/11 07:35:03;;;;;;;2.28;1.95;;;17.80;99.90;;;;;;4974324;28;20201;-83
2022/07/11 07:37:31;;;;;;;2.60;2.40;;;17.80;99.90;;;;;;4997752;28;20208;-83
2022/07/11 07:40:00;;;;;;;2.15;2.00;;;17.80;99.90;;;;;;4992267;28;20208;-83
2022/07/11 07:42:27;;;;;;;2.28;2.08;;;17.80;99.90;;;;;;4991224;28;20205;-83
2022/07/11 07:44:55;;;;;;;2.50;2.30;;;17.80;99.90;;;;;;4992665;28;20189;-82
2022/07/11 07:47:22;;;;;;;2.70;2.20;;;17.80;99.90;;;;;;4990878;28;20239;-83
2022/07/11 07:49:50;;;;;;;2.15;1.83;;;17.80;99.90;;;;;;4973585;28;20197;-83
2022/07/11 07:52:18;;;;;;;2.90;1.85;;;17.60;99.90;;;;;;4970296;28;20203;-82
2022/07/11 07:54:46;;;;;;;1.67;1.55;;;17.40;99.90;;;;;;4985608;28;20209;-83
2022/07/11 07:57:15;;;;;;;1.60;1.42;;;17.40;99.90;;;;;;4973953;28;20231;-83
2022/07/11 07:59:42;;;;;;;3.33;1.80;;;17.40;99.90;;;;;;4974525;28;20208;-82
2022/07/11 08:02:09;;;;;;;2.78;2.20;;;17.40;99.90;;;;;;4974572;28;20201;-82
2022/07/11 08:04:36;;;;;;;3.22;1.90;;;17.30;99.90;;;;;;4974600;28;20208;-83
2022/07/11 08:07:04;;;;;;;3.22;2.30;;;17.30;99.90;;;;;;4964880;28;20232;-83
2022/07/11 08:09:31;;;;;;;2.95;2.15;;;17.30;99.90;;;;;;4988391;28;20235;-83
2022/07/11 08:11:59;;;;;;;4.20;1.98;;;17.40;99.90;;;;;;4969459;28;20208;-83
2022/07/11 08:14:28;;;;;;;3.38;2.38;;;17.40;99.90;;;;;;4987764;28;20208;-83
2022/07/11 08:16:55;;;;;;;3.90;2.13;;;17.50;99.90;;;;;;4971826;28;20221;-83
2022/07/11 08:19:22;;;;;;;4.90;1.80;;;17.60;99.90;;;;;;4988505;28;20216;-83
2022/07/11 08:21:50;;;;;;;3.53;1.75;;;17.70;99.90;;;;;;4988573;28;20201;-83
2022/07/11 08:24:17;;;;;;;5.93;2.40;;;17.80;99.90;;;;;;4973100;28;20201;-83
2022/07/11 08:26:45;;;;;;;1.98;1.77;;;17.80;99.90;;;;;;4972764;28;20252;-83
2022/07/11 08:29:12;;;;;;;2.30;1.90;;;17.90;99.90;;;;;;4990526;28;20201;-83
2022/07/11 08:31:41;;;;;;;1.90;1.65;;;17.90;99.90;;;;;;4980484;28;20671;-83
2022/07/11 08:34:08;;;;;;;3.25;1.92;;;18.00;99.90;;;;;;4970670;28;20215;-83
2022/07/11 08:36:36;;;;;;;3.25;1.60;;;18.10;99.90;;;;;;4972360;28;20231;-83
2022/07/11 08:39:04;;;;;;;2.70;2.03;;;18.00;99.90;;;;;;4990335;28;20205;-83
2022/07/11 08:41:32;;;;;;;2.50;1.70;;;18.00;99.90;;;;;;4989339;28;20197;-83
2022/07/11 08:44:00;;;;;;;2.03;1.80;;;18.00;99.90;;;;;;4971610;28;20209;-82
2022/07/11 08:46:29;;;;;;;4.25;1.85;;;17.90;99.90;;;;;;4982101;28;20235;-83
2022/07/11 08:49:03;;;;;;;3.92;2.40;;;18.20;99.90;;;;;;4968961;28;20201;-83
2022/07/11 08:51:31;;;;;;;2.95;1.88;;;18.30;99.90;;;;;;4978909;28;20204;-83
2022/07/11 08:53:58;;;;;;;2.35;1.77;;;18.30;99.90;;;;;;4973425;28;20201;-83
2022/07/11 08:56:29;;;;;;;1.73;1.52;;;18.70;99.90;;;;;;4974151;28;20228;-83
2022/07/11 08:58:59;;;;;;;2.58;1.80;;;18.80;99.90;;;;;;4973625;28;20205;-83
2022/07/11 09:01:29;;;;;;;2.78;1.80;;;18.80;99.90;;;;;;4991658;28;20193;-83
2022/07/11 09:03:59;;;;;;;3.08;2.40;;;18.70;99.90;;;;;;4990431;28;20196;-83
2022/07/11 09:06:27;;;;;;;2.53;2.33;;;18.70;99.90;;;;;;4977344;28;20575;-83
2022/07/11 09:08:58;;;;;;;3.88;2.58;;;18.90;99.90;;;;;;4971846;28;20229;-83
2022/07/11 09:11:27;;;;;;;2.30;2.05;;;18.60;99.90;;;;;;4970416;28;20205;-83
2022/07/11 09:13:54;;;;;;;2.55;1.63;;;18.60;99.90;;;;;;4970738;28;20216;-83
2022/07/11 09:16:26;;;;;;;1.70;1.20;;;18.60;99.90;;;;;;4972849;28;20225;-83
2022/07/11 09:18:54;;;;;;;1.17;1.08;;;18.50;99.90;;;;;;4969972;28;20215;-83
2022/07/11 09:26:53;;;;;;;1.60;1.30;;;18.50;99.90;;;;;;4984191;28;20219;-83
2022/07/11 09:29:24;;;;;;;2.00;1.10;;;18.40;99.90;;;;;;5004892;28;20208;-83
2022/07/11 09:31:52;;;;;;;2.70;1.40;;;18.30;99.90;;;;;;4973770;28;20203;-83
2022/07/11 09:34:21;;;;;;;2.03;1.08;;;18.40;99.90;;;;;;4989644;28;20202;-83
2022/07/11 09:36:51;;;;;;;1.00;0.90;;;18.50;99.90;;;;;;4973223;28;20224;-83
2022/07/11 09:39:21;;;;;;;1.50;1.00;;;18.50;99.90;;;;;;4990242;28;20188;-83
2022/07/11 09:41:51;;;;;;;1.35;0.98;;;18.60;99.90;;;;;;4996334;28;20201;-83
2022/07/11 09:44:21;;;;;;;1.30;1.00;;;18.60;99.90;;;;;;4989462;28;20201;-83
2022/07/11 09:46:50;;;;;;;1.33;1.15;;;18.40;99.90;;;;;;4980203;28;20231;-83
2022/07/11 09:49:30;;;;;;;2.75;1.45;;;18.50;99.90;;;;;;4971469;28;20217;-83
2022/07/11 09:52:07;;;;;;;2.60;1.30;;;18.50;99.90;;;;;;4980800;28;20209;-83
2022/07/11 09:54:52;;;;;;;2.42;1.65;;;18.50;99.90;;;;;;4988204;28;20211;-83
2022/07/11 09:57:19;;;;;;;2.00;1.08;;;18.40;99.90;;;;;;4967003;28;20211;-83
2022/07/11 09:59:56;;;;;;;1.48;0.95;;;18.40;99.90;;;;;;4981208;28;20192;-83
2022/07/11 10:02:23;;;;;;;3.17;1.80;;;18.40;99.90;;;;;;4971752;28;20206;-84
2022/07/11 10:04:51;;;;;;;1.00;0.70;;;18.40;99.90;;;;;;4983823;28;20204;-83
2022/07/11 10:07:20;;;;;;;1.15;1.00;;;18.50;99.90;;;;;;4987881;28;20197;-83
2022/07/11 10:09:47;;;;;;;0.73;0.70;;;18.50;99.90;;;;;;4993303;28;20213;-83
2022/07/11 10:12:15;;;;;;;1.17;1.00;;;18.60;99.90;;;;;;4977233;28;20205;-83
2022/07/11 10:14:43;;;;;;;1.90;1.80;;;18.50;99.90;;;;;;4968912;28;21420;-83
2022/07/11 10:17:16;;;;;;;6.25;5.72;;;18.60;99.90;;;;;;4989044;28;20217;-83
2022/07/11 10:19:53;;;;;;;5.78;5.20;;;18.60;99.90;;;;;;4965681;28;20197;-83
2022/07/11 10:22:30;;;;;;;6.22;5.72;;;18.60;99.90;;;;;;4970254;28;20578;-83
2022/07/11 10:25:07;;;;;;;6.20;5.70;;;18.70;99.90;;;;;;4971630;28;20215;-82
2022/07/11 10:27:39;;;;;;;6.15;5.65;;;18.50;99.90;;;;;;4971673;28;20204;-83
2022/07/11 10:30:08;;;;;;;5.60;5.20;;;18.70;99.90;;;;;;4988529;28;20209;-83
2022/07/11 10:32:58;;;;;;;5.15;4.75;;;18.80;99.90;;;;;;4964864;28;20209;-83
2022/07/11 10:35:30;;;;;;;5.50;5.10;;;18.80;99.90;;;;;;4966587;28;20225;-83
2022/07/11 10:37:59;;;;;;;5.00;4.60;;;18.80;99.90;;;;;;4962161;28;20193;-85
2022/07/11 10:40:43;;;;;;;3.45;3.20;;;18.90;99.90;;;;;;4968127;28;20224;-83
2022/07/11 10:43:11;;;;;;;2.60;2.40;;;18.90;99.90;;;;;;4986407;28;20209;-83
2022/07/11 10:46:03;;;;;;;2.15;2.00;;;18.90;99.90;;;;;;4982985;28;20221;-83
2022/07/11 10:48:34;;;;;;;2.33;2.13;;;18.90;99.90;;;;;;4971289;28;20231;-83
2022/07/11 10:51:12;;;;;;;1.95;1.77;;;18.90;99.90;;;;;;4969352;28;20217;-83
2022/07/11 10:53:47;;;;;;;1.60;1.50;;;18.80;99.90;;;;;;4970972;28;20208;-83
2022/07/11 10:56:28;;;;;;;2.90;1.38;;;18.80;99.90;;;;;;4972009;28;20235;-83
2022/07/11 10:59:09;;;;;;;0.98;0.90;;;18.80;99.90;;;;;;4968512;28;20216;-83
2022/07/11 11:01:36;;;;;;;0.77;0.77;;;18.80;99.90;;;;;;4993092;28;20203;-83
2022/07/11 11:04:41;;;;;;;2.22;1.05;;;19.00;99.90;;;;;;4980838;28;20211;-83
2022/07/11 11:07:28;;;;;;;0.93;0.93;;;19.00;99.90;;;;;;4986195;28;20247;-83
2022/07/11 11:09:58;;;;;;;1.40;1.27;;;19.10;99.90;;;;;;4991490;28;20235;-83
2022/07/11 11:13:10;;;;;;;1.50;1.40;;;19.00;99.90;;;;;;4990737;28;20205;-83
2022/07/11 11:15:41;;;;;;;1.10;1.10;;;19.00;99.90;;;;;;4943460;28;20233;-83
2022/07/11 11:18:34;;;;;;;1.98;1.42;;;19.20;99.90;;;;;;4990273;28;20205;-83
2022/07/11 11:21:21;;;;;;;2.00;1.55;;;19.10;99.90;;;;;;4983236;28;20208;-83
2022/07/11 11:24:07;;;;;;;2.30;1.90;;;19.20;99.90;;;;;;4985181;28;20189;-83
2022/07/11 11:26:52;;;;;;;2.08;1.90;;;19.40;99.90;;;;;;4972051;28;20223;-84
2022/07/11 11:29:22;;;;;;;2.40;2.25;;;19.50;99.90;;;;;;4986567;28;20217;-83
2022/07/11 11:31:51;;;;;;;2.58;2.40;;;19.50;99.90;;;;;;4972066;28;20201;-81
2022/07/11 11:34:19;;;;;;;2.90;2.70;;;19.50;99.90;;;;;;4974463;28;20215;-80
2022/07/11 11:36:54;;;;;;;2.40;2.00;;;19.60;99.90;;;;;;4997914;28;20243;-80
2022/07/11 11:39:31;;;;;;;2.17;2.03;;;19.60;99.90;;;;;;4986559;28;20207;-80
2022/07/11 11:42:09;;;;;;;1.90;1.80;;;19.70;99.90;;;;;;4973728;28;20201;-80
2022/07/11 11:44:58;;;;;;;2.78;2.58;;;19.80;99.90;;;;;;4971639;28;20199;-80
2022/07/11 11:47:29;;;;;;;2.70;2.50;;;19.80;99.90;;;;;;4986184;28;20225;-80
2022/07/11 11:49:57;;;;;;;1.95;1.85;;;19.70;99.90;;;;;;4972229;28;20231;-80
2022/07/11 11:52:25;;;;;;;1.65;1.45;;;19.70;99.90;;;;;;4972088;28;20209;-80
2022/07/11 11:54:54;;;;;;;1.23;1.10;;;19.80;99.90;;;;;;4992462;28;21029;-80
2022/07/11 11:57:25;;;;;;;1.23;1.13;;;19.70;99.90;;;;;;4965884;28;20220;-80
2022/07/11 11:59:52;;;;;;;1.10;1.00;;;19.70;99.90;;;;;;4989171;28;20193;-82
2022/07/11 12:02:31;;;;;;;0.90;0.90;;;19.60;99.90;;;;;;4960648;28;20204;-82
2022/07/11 12:04:59;;;;;;;1.38;1.27;;;19.60;99.90;;;;;;4961635;28;20208;-82
2022/07/11 12:07:29;;;;;;;1.48;1.17;;;19.70;99.90;;;;;;4960717;28;20201;-82
2022/07/11 12:09:59;;;;;;;1.50;1.25;;;19.80;99.90;;;;;;4961725;28;20217;-82
2022/07/11 12:12:45;;;;;;;2.53;1.17;;;19.90;99.90;;;;;;4965934;28;20209;-82
2022/07/11 12:15:31;;;;;;;0.80;0.80;;;20.00;99.90;;;;;;4976775;28;20220;-82
2022/07/11 12:18:04;;;;;;;1.13;0.95;;;20.00;99.90;;;;;;4966209;28;20205;-82
2022/07/11 12:20:37;;;;;;;0.80;0.80;;;19.90;99.90;;;;;;4961881;28;20197;-82
2022/07/11 12:23:06;;;;;;;0.93;0.93;;;20.00;99.90;;;;;;4978272;28;20208;-82
2022/07/11 12:25:34;;;;;;;1.23;0.85;;;20.00;99.90;;;;;;4978751;28;20685;-82
2022/07/11 12:28:04;;;;;;;1.88;1.05;;;20.10;99.90;;;;;;4961611;28;20208;-82
2022/07/11 12:30:32;;;;;;;0.85;0.85;;;20.00;99.90;;;;;;4978267;28;20216;-82
2022/07/11 12:33:04;;;;;;;1.20;0.88;;;20.20;99.90;;;;;;4961029;28;20201;-82
2022/07/11 12:35:32;;;;;;;1.65;1.40;;;20.20;99.90;;;;;;4960558;28;20236;-82
2022/07/11 12:37:59;;;;;;;1.80;1.70;;;20.10;99.90;;;;;;4961393;28;20204;-82
2022/07/11 12:40:27;;;;;;;1.35;1.27;;;20.00;99.90;;;;;;4961147;28;20193;-82
2022/07/11 12:42:54;;;;;;;4.60;4.40;;;20.10;99.90;;;;;;4976730;28;20207;-82
2022/07/11 12:45:22;;;;;;;6.20;5.90;;;20.00;99.90;;;;;;4960371;28;20231;-82
2022/07/11 12:47:52;;;;;;;4.72;4.53;;;20.00;99.90;;;;;;4976585;28;20718;-82
2022/07/11 12:50:22;;;;;;;4.15;3.85;;;20.10;99.90;;;;;;4960786;28;20228;-82
2022/07/11 12:52:52;;;;;;;8.55;7.95;;;20.00;99.90;;;;;;4977528;28;20193;-82
2022/07/11 12:55:25;;;;;;;9.68;9.07;;;20.00;99.90;;;;;;4960486;28;20225;-82
2022/07/11 12:58:09;;;;;;;6.22;5.72;;;20.00;99.90;;;;;;4976519;28;20201;-82
2022/07/11 13:00:44;;;;;;;4.60;4.28;;;20.00;99.90;;;;;;4962205;28;20197;-83
2022/07/11 13:03:11;;;;;;;4.78;4.47;;;20.30;99.90;;;;;;4964610;28;20682;-82
2022/07/11 13:05:49;;;;;;;2.97;2.78;;;20.40;99.90;;;;;;4960343;28;20228;-82
2022/07/11 13:08:44;;;;;;;3.80;2.85;;;20.40;99.90;;;;;;4958667;29;20197;-82